createdAt,value
2023-02-14T00:00:43.138Z,75.62
2023-02-14T00:03:09.607Z,75.28
2023-02-14T00:05:36.139Z,75.71
2023-02-14T00:08:02.558Z,75.62
2023-02-14T00:10:29.050Z,75.29
2023-02-14T00:12:55.492Z,76.44
2023-02-14T00:15:25.887Z,75.83
2023-02-14T00:17:55.442Z,74.17
2023-02-14T00:20:23.167Z,74.56
2023-02-14T00:22:50.359Z,73.84
2023-02-14T00:25:18.137Z,74.16
2023-02-14T00:27:45.033Z,73.81
2023-02-14T00:30:13.638Z,73.51
2023-02-14T00:32:41.573Z,74.99
2023-02-14T00:35:09.346Z,74.78
2023-02-14T00:37:36.049Z,74.53
2023-02-14T00:40:02.827Z,73.48
2023-02-14T00:42:29.272Z,73.63
2023-02-14T00:44:55.761Z,73.30
2023-02-14T00:47:22.283Z,73.69
2023-02-14T00:49:48.789Z,74.55
2023-02-14T00:52:15.430Z,74.78
2023-02-14T00:54:42.112Z,75.16
2023-02-14T00:57:08.596Z,75.65
2023-02-14T00:59:36.304Z,75.00
2023-02-14T01:02:04.015Z,74.40
2023-02-14T01:04:30.506Z,74.18
2023-02-14T01:06:57.014Z,74.60
2023-02-14T01:09:23.426Z,73.65
2023-02-14T01:11:50.118Z,73.22
2023-02-14T01:14:16.534Z,73.62
2023-02-14T01:16:42.989Z,72.69
2023-02-14T01:19:09.496Z,73.52
2023-02-14T01:21:36.036Z,73.98
2023-02-14T01:24:06.158Z,73.62
2023-02-14T01:26:34.188Z,73.90
2023-02-14T01:29:01.715Z,74.08
2023-02-14T01:31:31.553Z,73.25
2023-02-14T01:33:59.422Z,73.50
2023-02-14T01:36:36.491Z,73.37
2023-02-14T01:39:11.508Z,73.26
2023-02-14T01:41:39.745Z,73.23
2023-02-14T01:44:26.401Z,74.08
2023-02-14T01:46:52.975Z,74.43
2023-02-14T01:49:47.473Z,74.62
2023-02-14T01:52:37.648Z,74.15
2023-02-14T01:55:13.008Z,74.55
2023-02-14T01:57:54.046Z,73.63
2023-02-14T02:00:40.577Z,73.49
2023-02-14T02:03:08.192Z,76.20
2023-02-14T02:05:40.084Z,75.76
2023-02-14T02:08:06.716Z,76.55
2023-02-14T02:10:33.146Z,77.75
2023-02-14T02:13:05.950Z,76.52
2023-02-14T02:15:42.370Z,75.41
2023-02-14T02:18:29.949Z,75.35
2023-02-14T02:21:15.199Z,75.23
2023-02-14T02:23:59.030Z,77.00
2023-02-14T02:26:57.110Z,77.17
2023-02-14T02:29:56.626Z,77.89
2023-02-14T02:33:01.756Z,77.48
2023-02-14T02:35:50.044Z,76.85
2023-02-14T02:38:55.333Z,77.72
2023-02-14T02:41:53.052Z,77.93
2023-02-14T02:44:35.862Z,78.37
2023-02-14T02:47:31.152Z,78.27
2023-02-14T02:50:32.858Z,77.31
2023-02-14T02:53:05.440Z,77.58
2023-02-14T02:55:53.026Z,78.93
2023-02-14T02:58:22.479Z,78.28
2023-02-14T03:00:53.057Z,78.23
2023-02-14T03:03:43.312Z,77.65
2023-02-14T03:06:09.875Z,77.36
2023-02-14T03:08:36.290Z,77.27
2023-02-14T03:11:04.872Z,77.46
2023-02-14T03:14:03.140Z,77.59
2023-02-14T03:16:41.655Z,77.56
2023-02-14T03:19:55.323Z,77.62
2023-02-14T03:22:35.084Z,76.65
2023-02-14T03:25:16.534Z,76.36
2023-02-14T03:28:18.860Z,78.09
2023-02-14T03:31:02.546Z,77.42
2023-02-14T03:33:41.140Z,78.22
2023-02-14T03:36:31.604Z,77.75
2023-02-14T03:39:15.982Z,77.84
2023-02-14T03:42:06.292Z,76.64
2023-02-14T03:44:35.312Z,75.59
2023-02-14T03:47:07.448Z,77.44
2023-02-14T03:49:39.792Z,77.32
2023-02-14T03:52:09.676Z,78.48
2023-02-14T03:54:36.610Z,78.63
2023-02-14T03:57:22.182Z,78.11
2023-02-14T03:59:48.996Z,77.84
2023-02-14T04:02:23.349Z,77.89
2023-02-14T04:04:51.610Z,77.87
2023-02-14T04:07:21.020Z,77.89
2023-02-14T04:09:48.290Z,77.20
2023-02-14T04:12:16.950Z,77.67
2023-02-14T04:14:44.794Z,76.61
2023-02-14T04:17:30.133Z,77.15
2023-02-14T04:19:56.656Z,75.43
2023-02-14T04:22:23.191Z,76.19
2023-02-14T04:24:49.679Z,76.93
2023-02-14T04:27:16.162Z,77.63
2023-02-14T04:29:44.219Z,77.83
2023-02-14T04:32:17.477Z,77.70
2023-02-14T04:34:44.552Z,77.68
2023-02-14T04:37:11.762Z,77.82
2023-02-14T04:39:39.347Z,79.11
2023-02-14T04:42:06.512Z,79.25
2023-02-14T04:44:34.089Z,78.54
2023-02-14T04:47:01.591Z,78.74
2023-02-14T04:49:28.025Z,78.41
2023-02-14T04:51:54.628Z,78.42
2023-02-14T04:54:22.009Z,78.45
2023-02-14T04:56:48.994Z,78.25
2023-02-14T04:59:15.578Z,78.42
2023-02-14T05:01:42.336Z,78.62
2023-02-14T05:04:08.926Z,78.26
2023-02-14T05:06:35.444Z,78.01
2023-02-14T05:09:02.363Z,77.84
2023-02-14T05:11:29.428Z,77.75
2023-02-14T05:13:56.202Z,78.48
2023-02-14T05:16:23.105Z,77.71
2023-02-14T05:18:49.712Z,79.16
2023-02-14T05:21:16.264Z,79.84
2023-02-14T05:23:42.680Z,79.97
2023-02-14T05:26:09.217Z,80.32
2023-02-14T05:28:36.136Z,79.62
2023-02-14T05:31:03.152Z,80.06
2023-02-14T05:33:29.928Z,79.98
2023-02-14T05:35:59.891Z,78.85
2023-02-14T05:38:26.485Z,79.79
2023-02-14T05:40:52.954Z,79.45
2023-02-14T05:43:19.456Z,79.44
2023-02-14T05:45:45.966Z,80.99
2023-02-14T05:48:13.264Z,81.79
2023-02-14T05:50:39.701Z,81.60
2023-02-14T05:53:06.834Z,81.72
2023-02-14T05:55:33.350Z,82.01
2023-02-14T05:57:59.779Z,97.33
2023-02-14T06:00:26.455Z,100.00
2023-02-14T06:02:52.982Z,100.00
2023-02-14T06:05:20.156Z,100.00
2023-02-14T06:07:50.531Z,91.95
2023-02-14T06:10:22.086Z,83.81
2023-02-14T06:12:49.747Z,68.80
2023-02-14T06:15:16.414Z,67.99
2023-02-14T06:17:43.449Z,69.43
2023-02-14T06:20:11.435Z,71.22
2023-02-14T06:22:39.100Z,72.44
2023-02-14T06:25:06.537Z,72.92
2023-02-14T06:27:33.360Z,74.01
2023-02-14T06:29:59.972Z,74.29
2023-02-14T06:32:26.670Z,74.65
2023-02-14T06:34:53.116Z,74.94
2023-02-14T06:37:20.097Z,75.61
2023-02-14T06:39:46.673Z,77.58
2023-02-14T06:42:13.153Z,76.78
2023-02-14T06:44:39.637Z,77.65
2023-02-14T06:47:07.961Z,78.46
2023-02-14T06:49:34.656Z,78.12
2023-02-14T06:52:01.130Z,77.66
2023-02-14T06:54:28.654Z,79.21
2023-02-14T06:56:55.132Z,80.53
2023-02-14T06:59:21.727Z,80.89
2023-02-14T07:01:48.336Z,81.02
2023-02-14T07:04:15.003Z,80.67
2023-02-14T07:06:41.589Z,81.24
2023-02-14T07:09:08.491Z,81.71
2023-02-14T07:11:34.965Z,81.96
2023-02-14T07:14:01.446Z,82.30
2023-02-14T07:16:27.963Z,82.54
2023-02-14T07:18:54.369Z,82.69
2023-02-14T07:21:20.854Z,82.85
2023-02-14T07:23:49.898Z,82.98
2023-02-14T07:26:18.098Z,82.97
2023-02-14T07:28:45.859Z,82.41
2023-02-14T07:31:12.700Z,82.10
2023-02-14T07:33:39.560Z,81.65
2023-02-14T07:36:07.884Z,81.69
2023-02-14T07:38:35.607Z,80.66
2023-02-14T07:41:02.549Z,80.99
2023-02-14T07:43:29.221Z,80.26
2023-02-14T07:45:55.778Z,80.07
2023-02-14T07:48:22.408Z,79.36
2023-02-14T07:50:48.908Z,78.95
2023-02-14T07:53:15.359Z,79.49
2023-02-14T07:55:41.807Z,78.82
2023-02-14T07:58:09.472Z,78.63
2023-02-14T08:00:35.924Z,78.73
2023-02-14T08:03:02.384Z,78.61
2023-02-14T08:05:29.672Z,78.75
2023-02-14T08:07:56.116Z,78.29
2023-02-14T08:10:22.872Z,78.61
2023-02-14T08:13:01.741Z,77.82
2023-02-14T08:15:51.486Z,78.61
2023-02-14T08:18:19.958Z,78.33
2023-02-14T08:20:49.633Z,77.83
2023-02-14T08:23:18.564Z,77.82
2023-02-14T08:25:45.423Z,78.28
2023-02-14T08:28:13.675Z,79.38
2023-02-14T08:30:40.980Z,79.07
2023-02-14T08:33:08.588Z,79.21
2023-02-14T08:35:36.027Z,79.95
2023-02-14T08:38:02.480Z,79.18
2023-02-14T08:40:29.030Z,79.47
2023-02-14T08:42:55.530Z,80.12
2023-02-14T08:45:22.095Z,79.74
2023-02-14T08:47:48.784Z,80.12
2023-02-14T08:50:17.456Z,81.09
2023-02-14T08:52:44.472Z,80.18
2023-02-14T08:55:11.664Z,80.21
2023-02-14T08:57:38.401Z,79.80
2023-02-14T09:00:07.665Z,80.05
2023-02-14T09:02:34.441Z,79.01
2023-02-14T09:05:01.104Z,79.06
2023-02-14T09:07:27.669Z,79.63
2023-02-14T09:09:54.144Z,78.79
2023-02-14T09:12:20.591Z,76.89
2023-02-14T09:14:47.674Z,75.02
2023-02-14T09:17:15.278Z,72.36
2023-02-14T09:19:42.332Z,71.60
2023-02-14T09:22:10.391Z,70.27
2023-02-14T09:24:38.646Z,69.83
2023-02-14T09:27:05.746Z,68.85
2023-02-14T09:29:34.255Z,68.50
2023-02-14T09:32:01.951Z,67.19
2023-02-14T09:34:48.611Z,66.15
2023-02-14T09:37:33.984Z,65.05
2023-02-14T09:40:00.836Z,64.84
2023-02-14T09:42:27.250Z,63.14
2023-02-14T09:45:07.109Z,63.13
2023-02-14T09:47:40.447Z,63.63
2023-02-14T09:50:19.130Z,63.26
2023-02-14T09:52:49.751Z,62.61
2023-02-14T09:55:18.005Z,63.30
2023-02-14T09:58:13.308Z,63.13
2023-02-14T10:00:48.721Z,62.43
2023-02-14T10:03:48.026Z,62.65
2023-02-14T10:06:38.849Z,62.18
2023-02-14T10:09:28.646Z,62.27
2023-02-14T10:11:57.954Z,62.21
2023-02-14T10:14:29.957Z,61.26
2023-02-14T10:17:15.082Z,62.48
2023-02-14T10:19:48.347Z,62.05
2023-02-14T10:22:18.259Z,60.95
2023-02-14T10:24:47.643Z,61.33
2023-02-14T10:27:42.521Z,62.91
2023-02-14T10:30:18.172Z,63.06
2023-02-14T10:33:11.099Z,63.30
2023-02-14T10:35:51.190Z,64.03
2023-02-14T10:38:46.461Z,65.36
2023-02-14T10:41:35.749Z,66.63
2023-02-14T10:44:20.540Z,66.50
2023-02-14T10:47:04.488Z,68.07
2023-02-14T10:49:53.428Z,67.13
2023-02-14T10:52:29.431Z,65.93
2023-02-14T10:55:00.031Z,66.31
2023-02-14T10:57:36.614Z,66.39
2023-02-14T11:00:07.188Z,66.05
2023-02-14T11:02:40.074Z,65.33
2023-02-14T11:05:17.751Z,65.04
2023-02-14T11:07:44.658Z,66.22
2023-02-14T11:10:14.691Z,67.02
2023-02-14T11:12:41.833Z,67.90
2023-02-14T11:15:17.281Z,67.56
2023-02-14T11:17:43.838Z,66.76
2023-02-14T11:20:30.312Z,66.62
2023-02-14T11:22:57.546Z,65.83
2023-02-14T11:25:29.745Z,65.31
2023-02-14T11:28:05.940Z,65.10
2023-02-14T11:30:40.864Z,65.22
2023-02-14T11:33:13.278Z,64.04
2023-02-14T11:35:40.035Z,63.84
2023-02-14T11:38:24.898Z,63.85
2023-02-14T11:40:55.938Z,64.08
2023-02-14T11:43:38.118Z,63.05
2023-02-14T11:46:14.901Z,63.55
2023-02-14T11:48:59.633Z,63.94
2023-02-14T11:51:29.826Z,64.04
2023-02-14T11:54:01.601Z,65.02
2023-02-14T11:56:54.369Z,66.51
2023-02-14T11:59:44.095Z,65.70
2023-02-14T12:02:32.706Z,68.34
2023-02-14T12:05:04.874Z,67.87
2023-02-14T12:07:37.735Z,68.39
2023-02-14T12:10:15.585Z,69.02
2023-02-14T12:12:50.153Z,69.41
2023-02-14T12:15:25.690Z,69.76
2023-02-14T12:18:00.579Z,70.24
2023-02-14T12:20:38.021Z,70.81
2023-02-14T12:23:17.560Z,71.58
2023-02-14T12:25:52.738Z,71.58
2023-02-14T12:28:25.935Z,71.81
2023-02-14T12:30:52.491Z,72.47
2023-02-14T12:33:21.745Z,71.62
2023-02-14T12:36:24.308Z,72.43
2023-02-14T12:39:08.493Z,72.84
2023-02-14T12:42:00.567Z,73.37
2023-02-14T12:44:57.662Z,72.55
2023-02-14T12:47:39.091Z,72.99
2023-02-14T12:50:21.529Z,72.64
2023-02-14T12:53:06.106Z,73.39
2023-02-14T12:55:42.110Z,74.21
2023-02-14T12:58:44.114Z,73.82
2023-02-14T13:01:24.763Z,74.51
2023-02-14T13:04:47.447Z,74.79
2023-02-14T13:07:29.834Z,74.28
2023-02-14T13:10:25.071Z,73.56
2023-02-14T13:13:14.338Z,73.88
2023-02-14T13:15:45.012Z,74.34
2023-02-14T13:18:36.566Z,74.50
2023-02-14T13:21:06.351Z,74.60
2023-02-14T13:23:41.154Z,74.75
2023-02-14T13:26:14.705Z,73.98
2023-02-14T13:29:10.765Z,73.75
2023-02-14T13:31:38.688Z,73.27
2023-02-14T13:34:13.714Z,73.90
2023-02-14T13:36:40.989Z,72.98
2023-02-14T13:39:13.918Z,73.54
2023-02-14T13:41:41.788Z,74.77
2023-02-14T13:44:08.385Z,74.45
2023-02-14T13:46:35.228Z,74.48
2023-02-14T13:49:23.471Z,74.75
2023-02-14T13:51:57.178Z,75.18
2023-02-14T13:54:47.530Z,75.70
2023-02-14T13:57:36.434Z,75.39
2023-02-14T14:00:19.335Z,75.63
2023-02-14T14:02:56.598Z,76.08
2023-02-14T14:05:50.007Z,76.06
2023-02-14T14:08:29.866Z,77.01
2023-02-14T14:10:59.802Z,77.58
2023-02-14T14:13:41.873Z,77.46
2023-02-14T14:16:23.599Z,77.22
2023-02-14T14:19:16.362Z,77.46
2023-02-14T14:21:45.524Z,77.15
2023-02-14T14:24:22.955Z,75.98
2023-02-14T14:27:06.485Z,76.22
2023-02-14T14:29:59.626Z,76.57
2023-02-14T14:32:29.983Z,76.76
2023-02-14T14:35:21.660Z,78.45
2023-02-14T14:38:01.048Z,78.67
2023-02-14T14:40:34.913Z,78.43
2023-02-14T14:43:10.266Z,78.06
2023-02-14T14:45:40.955Z,77.42
2023-02-14T14:48:14.021Z,78.16
2023-02-14T14:50:45.700Z,78.25
2023-02-14T14:53:23.523Z,78.23
2023-02-14T14:55:54.446Z,79.59
2023-02-14T14:58:39.589Z,80.47
2023-02-14T15:01:21.381Z,81.04
2023-02-14T15:03:48.915Z,81.94
2023-02-14T15:06:22.737Z,81.74
2023-02-14T15:08:49.962Z,81.96
2023-02-14T15:11:41.916Z,81.48
2023-02-14T15:14:15.767Z,81.88
2023-02-14T15:17:14.033Z,81.55
2023-02-14T15:19:44.747Z,81.35
2023-02-14T15:22:25.924Z,82.37
2023-02-14T15:24:57.908Z,82.12
2023-02-14T15:27:26.614Z,81.51
2023-02-14T15:30:10.046Z,81.97
2023-02-14T15:32:40.291Z,81.38
2023-02-14T15:35:14.688Z,82.24
2023-02-14T15:37:45.335Z,82.66
2023-02-14T15:40:23.106Z,83.36
2023-02-14T15:42:57.417Z,84.25
2023-02-14T15:45:28.793Z,84.20
2023-02-14T15:47:59.208Z,83.11
2023-02-14T15:50:33.067Z,82.90
2023-02-14T15:53:17.273Z,82.92
2023-02-14T15:55:44.599Z,83.03
2023-02-14T15:58:23.157Z,83.75
2023-02-14T16:00:53.382Z,83.76
2023-02-14T16:03:26.871Z,83.81
2023-02-14T16:05:55.044Z,83.04
2023-02-14T16:08:31.641Z,82.19
2023-02-14T16:11:30.065Z,80.94
2023-02-14T16:13:56.928Z,80.59
2023-02-14T16:16:23.896Z,80.34
2023-02-14T16:18:56.601Z,79.76
2023-02-14T16:21:27.575Z,80.45
2023-02-14T16:24:11.286Z,82.04
2023-02-14T16:26:39.544Z,82.52
2023-02-14T16:29:08.358Z,82.81
2023-02-14T16:31:38.516Z,82.44
2023-02-14T16:34:05.568Z,84.18
2023-02-14T16:36:34.495Z,84.31
2023-02-14T16:39:05.960Z,83.77
2023-02-14T16:41:34.607Z,84.44
2023-02-14T16:44:01.520Z,83.19
2023-02-14T16:46:31.555Z,82.93
2023-02-14T16:48:59.562Z,82.19
2023-02-14T16:51:29.890Z,82.06
2023-02-14T16:54:00.592Z,81.35
2023-02-14T16:56:36.791Z,80.25
2023-02-14T16:59:03.686Z,79.97
2023-02-14T17:01:30.357Z,81.37
2023-02-14T17:03:58.694Z,81.91
2023-02-14T17:06:28.637Z,81.32
2023-02-14T17:08:58.526Z,80.45
2023-02-14T17:11:27.478Z,79.68
2023-02-14T17:13:55.078Z,80.44
2023-02-14T17:16:22.630Z,81.81
2023-02-14T17:18:52.153Z,82.27
2023-02-14T17:21:23.516Z,81.02
2023-02-14T17:23:50.781Z,80.03
2023-02-14T17:26:19.036Z,79.59
2023-02-14T17:28:47.575Z,78.47
2023-02-14T17:31:17.038Z,78.54
2023-02-14T17:33:54.521Z,78.61
2023-02-14T17:36:32.188Z,78.85
2023-02-14T17:39:09.309Z,79.08
2023-02-14T17:41:36.571Z,79.85
2023-02-14T17:44:05.181Z,80.45
2023-02-14T17:46:32.680Z,80.36
2023-02-14T17:49:03.220Z,80.29
2023-02-14T17:51:30.888Z,80.07
2023-02-14T17:53:59.034Z,80.29
2023-02-14T17:56:26.213Z,80.04
2023-02-14T17:58:55.285Z,79.80
2023-02-14T18:01:24.629Z,79.60
2023-02-14T18:03:53.028Z,79.43
2023-02-14T18:06:19.820Z,80.06
2023-02-14T18:08:53.588Z,80.87
2023-02-14T18:11:21.643Z,81.56
2023-02-14T18:13:48.645Z,81.80
2023-02-14T18:16:18.460Z,82.25
2023-02-14T18:18:45.898Z,82.18
2023-02-14T18:21:25.725Z,83.19
2023-02-14T18:24:06.668Z,83.38
2023-02-14T18:26:34.732Z,83.23
2023-02-14T18:29:06.802Z,83.50
2023-02-14T18:31:35.622Z,83.09
2023-02-14T18:34:05.640Z,82.96
2023-02-14T18:36:36.179Z,83.17
2023-02-14T18:39:04.213Z,83.72
2023-02-14T18:41:31.961Z,83.19
2023-02-14T18:43:59.110Z,82.54
2023-02-14T18:46:30.684Z,82.50
2023-02-14T18:48:57.914Z,82.18
2023-02-14T18:51:27.603Z,81.84
2023-02-14T18:53:59.981Z,82.67
2023-02-14T18:56:30.651Z,82.38
2023-02-14T18:59:04.859Z,83.03
2023-02-14T19:01:36.938Z,82.91
2023-02-14T19:04:09.326Z,82.82
2023-02-14T19:06:40.968Z,83.14
2023-02-14T19:09:13.557Z,82.91
2023-02-14T19:11:42.104Z,82.83
2023-02-14T19:14:13.804Z,82.68
2023-02-14T19:16:51.266Z,82.51
2023-02-14T19:19:24.116Z,83.75
2023-02-14T19:21:52.051Z,84.27
2023-02-14T19:24:19.929Z,84.95
2023-02-14T19:26:48.358Z,84.10
2023-02-14T19:29:18.299Z,84.03
2023-02-14T19:31:48.400Z,84.32
2023-02-14T19:34:29.319Z,85.11
2023-02-14T19:36:59.130Z,85.33
2023-02-14T19:39:29.648Z,86.10
2023-02-14T19:41:58.223Z,86.49
2023-02-14T19:44:26.804Z,86.18
2023-02-14T19:46:59.828Z,86.14
2023-02-14T19:49:33.217Z,85.99
2023-02-14T19:52:00.159Z,86.30
2023-02-14T19:54:29.969Z,87.04
2023-02-14T19:56:57.445Z,85.97
2023-02-14T19:59:28.643Z,86.21
2023-02-14T20:01:56.573Z,86.49
2023-02-14T20:04:27.832Z,86.87
2023-02-14T20:06:56.101Z,87.41
2023-02-14T20:09:23.738Z,86.31
2023-02-14T20:11:54.404Z,85.52
2023-02-14T20:14:25.092Z,85.61
2023-02-14T20:16:54.012Z,86.25
2023-02-14T20:19:23.442Z,87.27
2023-02-14T20:21:51.230Z,87.35
2023-02-14T20:24:20.547Z,86.74
2023-02-14T20:26:48.190Z,86.61
2023-02-14T20:29:16.280Z,87.00
2023-02-14T20:31:45.563Z,86.89
2023-02-14T20:34:13.200Z,86.34
2023-02-14T20:36:41.233Z,86.46
2023-02-14T20:39:09.721Z,86.35
2023-02-14T20:41:36.429Z,85.99
2023-02-14T20:44:10.687Z,86.31
2023-02-14T20:46:37.659Z,87.05
2023-02-14T20:49:05.747Z,87.26
2023-02-14T20:51:34.971Z,88.10
2023-02-14T20:54:04.004Z,88.06
2023-02-14T20:56:31.129Z,87.73
2023-02-14T20:59:00.681Z,87.56
2023-02-14T21:01:27.950Z,87.52
2023-02-14T21:03:55.499Z,86.77
2023-02-14T21:06:28.157Z,85.42
2023-02-14T21:08:55.440Z,85.01
2023-02-14T21:11:24.315Z,85.31
2023-02-14T21:13:57.583Z,85.26
2023-02-14T21:16:25.850Z,85.33
2023-02-14T21:18:59.329Z,84.15
2023-02-14T21:21:26.213Z,83.74
2023-02-14T21:23:53.855Z,84.07
2023-02-14T21:26:21.401Z,83.82
2023-02-14T21:28:49.318Z,84.51
2023-02-14T21:31:21.241Z,84.51
2023-02-14T21:33:57.487Z,84.52
2023-02-14T21:36:26.561Z,84.76
2023-02-14T21:38:58.884Z,84.30
2023-02-14T21:41:29.794Z,84.82
2023-02-14T21:43:57.935Z,84.87
2023-02-14T21:46:31.518Z,85.09
2023-02-14T21:49:22.683Z,85.56
2023-02-14T21:51:49.241Z,86.13
2023-02-14T21:54:16.793Z,87.25
2023-02-14T21:56:43.938Z,87.16
2023-02-14T21:59:11.101Z,86.36
2023-02-14T22:01:39.579Z,86.38
2023-02-14T22:04:09.484Z,86.13
2023-02-14T22:06:38.371Z,86.12
2023-02-14T22:09:05.910Z,86.60
2023-02-14T22:11:35.379Z,86.88
2023-02-14T22:14:02.220Z,86.50
2023-02-14T22:16:29.164Z,86.58
2023-02-14T22:18:56.046Z,87.13
2023-02-14T22:21:25.785Z,86.85
2023-02-14T22:23:53.211Z,86.87
2023-02-14T22:26:29.054Z,86.67
2023-02-14T22:29:00.785Z,86.93
2023-02-14T22:31:33.162Z,87.22
2023-02-14T22:34:00.023Z,87.08
2023-02-14T22:36:26.912Z,87.18
2023-02-14T22:38:53.817Z,86.18
2023-02-14T22:41:23.924Z,85.14
2023-02-14T22:43:52.448Z,84.99
2023-02-14T22:46:23.478Z,84.86
2023-02-14T22:48:51.526Z,84.82
2023-02-14T22:51:21.654Z,85.83
2023-02-14T22:53:50.848Z,86.17
2023-02-14T22:56:26.268Z,86.20
2023-02-14T22:58:58.642Z,86.35
2023-02-14T23:01:26.007Z,85.90
2023-02-14T23:03:57.827Z,86.13
2023-02-14T23:06:26.946Z,86.25
2023-02-14T23:08:54.545Z,86.78
2023-02-14T23:11:24.643Z,85.95
2023-02-14T23:14:13.013Z,86.65
2023-02-14T23:16:58.815Z,86.17
2023-02-14T23:19:46.734Z,86.86
2023-02-14T23:22:17.128Z,86.13
2023-02-14T23:24:45.656Z,85.56
2023-02-14T23:27:12.273Z,85.06
2023-02-14T23:29:38.816Z,85.18
2023-02-14T23:32:06.624Z,84.81
2023-02-14T23:34:35.562Z,85.22
2023-02-14T23:37:02.394Z,84.85
2023-02-14T23:39:29.149Z,85.05
2023-02-14T23:41:56.109Z,85.86
2023-02-14T23:44:28.082Z,87.17
2023-02-14T23:46:58.864Z,87.61
2023-02-14T23:49:26.618Z,88.47
2023-02-14T23:51:55.826Z,88.47
2023-02-14T23:54:24.008Z,88.31
2023-02-14T23:56:52.494Z,88.93
2023-02-14T23:59:21.037Z,88.53
